Terminal Aerodrome Forecast
Issued by NWS

Home | Current Version | Previous Version | Text Only | Print | Product List | Glossary On
Versions: 1 2 3 4 5 6 7 8 9 10 11 12 13 14 15 16 17 18 19 20 21 22 23 24
000
FTPQ31 PGUM 301739
TAFGUM
TAF

TAF
PTRO 301739Z 3018/3118 05007KT P6SM VCSH SCT016
     FM302300 03013KT P6SM VCSH SCT016 SCT120=

USA.gov is the U.S. government's official web portal to all federal, state and local government web resources and services.